Fairbank, Pennsylvania
Current Conditions -  °F | °C
As of 8:53 PM on Saturday 22 Nov 2014 (Local Time) from KMGW Reporting Station
Clear Clear  
Wind Chill: 39°   Ceiling: Unl
Heat Index: 39°   Visibility: 10mi
Dew Point: 26°   Wind: 3mph
Humidity: 60%   Direction: 200°SSW
Pressure: 30.14"   Gusts: NA
Location:  39.94°N, 79.85°W
Report Text: KMGW 230153Z 20003KT 10SM CLR 04/M03 A3014 RMK AO2 SLP220 T00391033
Loading
Personal Weather Stations






























Interactive Weather Map New forecast layout! Learn more

10-Day Weather Forecast

Advertisements
Track Severe Weather on mobile